createdAt,value
2022-08-14T00:01:33.034Z,101016.50
2022-08-14T00:06:54.799Z,101011.19
2022-08-14T00:12:24.117Z,101002.78
2022-08-14T00:17:52.859Z,100991.59
2022-08-14T00:23:17.894Z,100986.00
2022-08-14T00:28:39.794Z,100970.31
2022-08-14T00:34:37.687Z,100979.84
2022-08-14T00:39:43.521Z,100968.66
2022-08-14T00:45:08.141Z,100963.06
2022-08-14T00:50:33.255Z,100963.31
2022-08-14T00:55:57.765Z,100962.50
2022-08-14T01:01:19.606Z,100961.66
2022-08-14T01:06:41.828Z,100951.31
2022-08-14T01:12:06.048Z,100955.22
2022-08-14T01:17:52.322Z,100956.06
2022-08-14T01:23:15.796Z,100940.69
2022-08-14T01:28:56.489Z,100946.28
2022-08-14T01:35:17.569Z,100931.47
2022-08-14T01:40:03.549Z,100922.22
2022-08-14T01:45:25.827Z,100920.53
2022-08-14T01:50:47.670Z,100915.25
2022-08-14T01:56:12.134Z,100913.81
2022-08-14T02:01:41.952Z,100914.94
2022-08-14T02:07:15.450Z,100909.34
2022-08-14T02:12:37.655Z,100903.19
2022-08-14T02:18:04.431Z,100914.41
2022-08-14T02:23:31.911Z,100904.63
2022-08-14T02:29:00.389Z,100896.22
2022-08-14T02:34:27.619Z,100917.78
2022-08-14T02:39:50.880Z,100905.75
2022-08-14T02:45:13.655Z,100904.94
2022-08-14T02:50:42.124Z,100909.66
2022-08-14T02:56:30.005Z,100911.66
2022-08-14T03:01:59.946Z,100903.00
2022-08-14T03:07:23.783Z,100899.09
2022-08-14T03:12:46.352Z,100896.56
2022-08-14T03:18:13.689Z,100887.03
2022-08-14T03:23:41.907Z,100879.75
2022-08-14T03:29:04.760Z,100890.97
2022-08-14T03:34:47.599Z,100883.69
2022-08-14T03:40:17.633Z,100881.97
2022-08-14T03:45:48.711Z,100876.38
2022-08-14T03:51:13.456Z,100878.34
2022-08-14T03:56:44.811Z,100863.50
2022-08-14T04:02:32.361Z,100853.47
2022-08-14T04:08:00.369Z,100854.59
2022-08-14T04:13:34.338Z,100846.22
2022-08-14T04:18:58.069Z,100836.13
2022-08-14T04:24:20.208Z,100834.47
2022-08-14T04:29:47.540Z,100830.53
2022-08-14T04:35:11.170Z,100827.75
2022-08-14T04:40:51.766Z,100820.47
2022-08-14T04:46:56.987Z,100816.00
2022-08-14T04:52:15.532Z,100812.66
2022-08-14T04:57:45.158Z,100829.44
2022-08-14T05:03:08.078Z,100832.25
2022-08-14T05:08:57.365Z,100827.78
2022-08-14T05:14:33.803Z,100827.78
2022-08-14T05:21:04.045Z,100829.75
2022-08-14T05:25:38.304Z,100820.25
2022-08-14T05:31:08.971Z,100823.41
2022-08-14T05:36:30.912Z,100829.66
2022-08-14T05:41:54.249Z,100829.13
2022-08-14T05:47:16.206Z,100825.25
2022-08-14T05:52:40.144Z,100826.09
2022-08-14T05:58:08.328Z,100809.31
2022-08-14T06:03:30.098Z,100811.00
2022-08-14T06:08:51.776Z,100805.69
2022-08-14T06:14:21.530Z,100798.94
2022-08-14T06:19:45.935Z,100796.69
2022-08-14T06:25:12.405Z,100801.69
2022-08-14T06:30:45.848Z,100795.00
2022-08-14T06:36:08.689Z,100799.16
2022-08-14T06:41:57.180Z,100805.31
2022-08-14T06:47:14.862Z,100799.97
2022-08-14T06:52:37.866Z,100799.38
2022-08-14T06:57:59.578Z,100795.44
2022-08-14T07:03:39.877Z,100786.78
2022-08-14T07:09:05.228Z,100799.09
2022-08-14T07:14:26.916Z,100794.63
2022-08-14T07:19:48.637Z,100795.44
2022-08-14T07:25:13.092Z,100786.78
2022-08-14T07:30:35.619Z,100790.13
2022-08-14T07:36:00.828Z,100777.50
2022-08-14T07:41:22.448Z,100785.88
2022-08-14T07:46:44.142Z,100761.81
2022-08-14T07:52:08.082Z,100760.38
2022-08-14T07:57:30.024Z,100749.75
2022-08-14T08:02:55.810Z,100755.88
2022-08-14T08:08:26.750Z,100758.94
2022-08-14T08:13:54.506Z,100752.75
2022-08-14T08:19:19.298Z,100749.66
2022-08-14T08:24:41.287Z,100751.03
2022-08-14T08:30:10.335Z,100750.47
2022-08-14T08:35:47.094Z,100735.34
2022-08-14T08:41:13.020Z,100731.13
2022-08-14T08:46:35.768Z,100739.22
2022-08-14T08:52:05.126Z,100731.34
2022-08-14T08:57:26.860Z,100729.41
2022-08-14T09:03:03.382Z,100736.38
2022-08-14T09:08:31.670Z,100733.56
2022-08-14T09:13:54.835Z,100724.03
2022-08-14T09:19:16.924Z,100723.22
2022-08-14T09:24:44.016Z,100713.97
2022-08-14T09:30:31.542Z,100711.19
2022-08-14T09:36:12.071Z,100706.13
2022-08-14T09:42:17.742Z,100704.16
2022-08-14T09:47:49.074Z,100693.81
2022-08-14T09:53:18.653Z,100682.06
2022-08-14T09:58:45.605Z,100678.69
2022-08-14T10:04:33.160Z,100687.06
2022-08-14T10:09:59.542Z,100675.34
2022-08-14T10:15:27.805Z,100664.16
2022-08-14T10:20:58.225Z,100659.09
2022-08-14T10:26:22.904Z,100656.56
2022-08-14T10:31:57.527Z,100652.38
2022-08-14T10:37:19.596Z,100640.31
2022-08-14T10:42:46.998Z,100642.00
2022-08-14T10:48:24.270Z,100629.34
2022-08-14T10:53:58.713Z,100631.88
2022-08-14T10:59:22.433Z,100623.16
2022-08-14T11:04:44.260Z,100602.44
2022-08-14T11:10:09.996Z,100604.97
2022-08-14T11:15:33.197Z,100598.19
2022-08-14T11:20:56.939Z,100595.94
2022-08-14T11:26:19.272Z,100588.38
2022-08-14T11:31:41.675Z,100585.28
2022-08-14T11:37:20.813Z,100576.56
2022-08-14T11:42:59.225Z,100574.94
2022-08-14T11:49:04.360Z,100579.91
2022-08-14T11:54:08.427Z,100571.81
2022-08-14T11:59:33.529Z,100567.88
2022-08-14T12:04:55.692Z,100560.84
2022-08-14T12:10:37.001Z,100544.06
2022-08-14T12:16:20.512Z,100539.31
2022-08-14T12:21:51.767Z,100540.13
2022-08-14T12:27:17.005Z,100532.84
2022-08-14T12:32:44.897Z,100530.91
2022-08-14T12:38:07.373Z,100537.31
2022-08-14T12:43:29.553Z,100530.91
2022-08-14T12:48:52.291Z,100522.19
2022-08-14T12:54:27.700Z,100512.66
2022-08-14T12:59:51.415Z,100504.25
2022-08-14T13:05:15.338Z,100504.25
2022-08-14T13:10:51.639Z,100491.06
2022-08-14T13:16:20.899Z,100504.78
2022-08-14T13:22:09.671Z,100492.47
2022-08-14T13:27:38.639Z,100484.06
2022-08-14T13:33:04.320Z,100462.47
2022-08-14T13:38:27.921Z,100455.44
2022-08-14T13:43:59.616Z,100456.50
2022-08-14T13:49:24.032Z,100449.16
2022-08-14T13:54:55.297Z,100450.19
2022-08-14T14:00:32.758Z,100442.31
2022-08-14T14:05:58.126Z,100446.22
2022-08-14T14:11:24.437Z,100434.41
2022-08-14T14:16:47.246Z,100426.22
2022-08-14T14:22:09.936Z,100411.91
2022-08-14T14:27:41.711Z,100408.81
2022-08-14T14:33:14.368Z,100410.44
2022-08-14T14:38:52.573Z,100405.38
2022-08-14T14:44:16.471Z,100398.94
2022-08-14T14:49:51.105Z,100392.19
2022-08-14T14:55:19.703Z,100377.66
2022-08-14T15:00:42.062Z,100379.13
2022-08-14T15:06:05.081Z,100376.31
2022-08-14T15:11:30.514Z,100377.75
2022-08-14T15:16:53.839Z,100371.66
2022-08-14T15:22:21.153Z,100373.59
2022-08-14T15:27:50.217Z,100366.66
2022-08-14T15:33:13.624Z,100364.78
2022-08-14T15:38:42.679Z,100358.25
2022-08-14T15:44:04.854Z,100357.72
2022-08-14T15:49:40.880Z,100350.47
2022-08-14T15:55:07.506Z,100346.53
2022-08-14T16:00:56.329Z,100339.25
2022-08-14T16:06:20.307Z,100340.69
2022-08-14T16:11:50.682Z,100327.81
2022-08-14T16:17:15.797Z,100330.63
2022-08-14T16:22:58.838Z,100330.09
2022-08-14T16:28:27.421Z,100326.97
2022-08-14T16:33:58.864Z,100326.16
2022-08-14T16:39:23.442Z,100315.28
2022-08-14T16:44:46.562Z,100322.00
2022-08-14T16:50:11.413Z,100314.75
2022-08-14T16:55:33.392Z,100312.22
2022-08-14T17:01:24.829Z,100306.63
2022-08-14T17:06:50.011Z,100306.94
2022-08-14T17:12:33.526Z,100291.28
2022-08-14T17:17:58.343Z,100290.75
2022-08-14T17:23:21.333Z,100291.91
2022-08-14T17:29:24.076Z,100282.34
2022-08-14T17:34:53.747Z,100287.75
2022-08-14T17:40:22.913Z,100281.81
2022-08-14T17:45:47.683Z,100290.22
2022-08-14T17:51:12.265Z,100291.38
2022-08-14T17:56:34.314Z,100288.56
2022-08-14T18:02:00.708Z,100293.34
2022-08-14T18:07:59.320Z,100292.53
2022-08-14T18:13:10.536Z,100285.28
2022-08-14T18:18:32.679Z,100288.06
2022-08-14T18:23:54.397Z,100289.22
2022-08-14T18:29:17.447Z,100290.03
2022-08-14T18:34:48.508Z,100294.81
2022-08-14T18:40:18.679Z,100285.28
2022-08-14T18:46:01.355Z,100299.28
2022-08-14T18:51:45.175Z,100304.34
2022-08-14T18:57:09.749Z,100301.00
2022-08-14T19:02:31.525Z,100307.66
2022-08-14T19:08:17.914Z,100307.03
2022-08-14T19:13:47.998Z,100307.88
2022-08-14T19:19:12.540Z,100318.75
2022-08-14T19:24:34.253Z,100314.28
2022-08-14T19:30:20.147Z,100308.69
2022-08-14T19:35:55.189Z,100315.75
2022-08-14T19:41:34.006Z,100319.38
2022-08-14T19:47:01.466Z,100319.59
2022-08-14T19:52:29.805Z,100324.06
2022-08-14T19:57:58.616Z,100317.63
2022-08-14T20:03:24.016Z,100312.03
2022-08-14T20:10:58.841Z,100316.50
2022-08-14T20:14:31.361Z,100304.75
2022-08-14T20:19:53.347Z,100313.47
2022-08-14T20:25:18.424Z,100313.47
2022-08-14T20:30:41.460Z,100305.91
2022-08-14T20:36:15.488Z,100310.06
2022-08-14T20:41:51.122Z,100305.38
2022-08-14T20:47:19.085Z,100303.72
2022-08-14T20:52:44.553Z,100309.41
2022-08-14T20:58:43.757Z,100317.81
2022-08-14T21:04:30.297Z,100331.81
2022-08-14T21:10:35.344Z,100330.66
2022-08-14T21:15:57.859Z,100330.16
2022-08-14T21:21:25.262Z,100333.47
2022-08-14T21:27:19.776Z,100336.28
2022-08-14T21:32:47.374Z,100346.63
2022-08-14T21:38:18.349Z,100336.28
2022-08-14T21:43:40.335Z,100339.06
2022-08-14T21:49:06.633Z,100336.28
2022-08-14T21:54:50.031Z,100331.50
2022-08-14T22:00:35.856Z,100330.66
2022-08-14T22:05:59.008Z,100328.16
2022-08-14T22:11:21.113Z,100326.81
2022-08-14T22:17:01.585Z,100334.94
2022-08-14T22:22:30.093Z,100332.94
2022-08-14T22:27:56.369Z,100343.31
2022-08-14T22:33:19.979Z,100331.28
2022-08-14T22:38:49.600Z,100326.00
2022-08-14T22:44:15.706Z,100322.88
2022-08-14T22:50:30.120Z,100327.13
2022-08-14T22:55:20.763Z,100320.69
2022-08-14T23:00:45.171Z,100319.88
2022-08-14T23:07:02.091Z,100314.28
2022-08-14T23:11:49.340Z,100319.56
2022-08-14T23:17:12.198Z,100314.28
2022-08-14T23:22:34.001Z,100309.50
2022-08-14T23:28:04.744Z,100310.34
2022-08-14T23:33:27.432Z,100307.00
2022-08-14T23:38:49.595Z,100310.63
2022-08-14T23:44:15.559Z,100308.16
2022-08-14T23:49:59.928Z,100298.94
2022-08-14T23:55:19.904Z,100290.81
